Time;durP1;ratioP1;P1;durP2;ratioP2;P2;SDS_P1;SDS_P2;PMS_P1;PMS_P2;Temp;Humidity;BMP_temperature;BMP_pressure;BME280_temperature;BME280_humidity;BME280_pressure;Samples;Min_cycle;Max_cycle;Signal;HPM_P1;HPM_P2
2023/06/02 00:00:53;;;;;;;12.50;9.50;;;;;;;23.24;41.32;100404.81;105376;1302;68500;-86
2023/06/02 00:03:19;;;;;;;14.40;9.50;;;;;;;23.24;41.14;100399.42;105334;1298;67826;-85
2023/06/02 00:05:46;;;;;;;14.50;9.10;;;;;;;23.23;41.36;100401.75;105272;1304;67667;-86
2023/06/02 00:08:22;;;;;;;14.50;9.30;;;;;;;23.23;41.26;100400.31;105300;1299;68107;-91
2023/06/02 00:10:47;;;;;;;14.20;9.10;;;;;;;23.22;41.35;100398.38;105309;1300;75390;-85
2023/06/02 00:13:13;;;;;;;15.20;9.40;;;;;;;23.22;41.31;100397.90;105394;1300;68141;-86
2023/06/02 00:15:40;;;;;;;15.70;9.50;;;;;;;23.22;41.37;100394.67;105350;1300;67874;-86
2023/06/02 00:18:07;;;;;;;15.30;9.40;;;;;;;23.22;41.38;100387.48;105279;1299;68315;-86
2023/06/02 00:20:32;;;;;;;14.70;9.40;;;;;;;23.22;41.44;100389.14;105295;1299;67177;-86
2023/06/02 00:22:58;;;;;;;12.30;8.70;;;;;;;23.21;41.33;100388.42;105326;1299;68327;-86
2023/06/02 00:25:24;;;;;;;13.40;8.60;;;;;;;23.21;41.35;100385.45;105358;1300;68163;-86
2023/06/02 00:27:49;;;;;;;16.00;8.20;;;;;;;23.21;41.49;100384.66;105458;1300;67171;-86
2023/06/02 00:30:15;;;;;;;11.70;8.60;;;;;;;23.20;41.46;100384.20;105324;1305;68649;-86
2023/06/02 00:32:41;;;;;;;14.70;8.60;;;;;;;23.20;41.38;100383.18;105273;1299;67786;-86
2023/06/02 00:35:15;;;;;;;12.50;8.60;;;;;;;23.20;41.46;100382.61;105294;1300;68530;-90
2023/06/02 00:37:41;;;;;;;12.10;9.10;;;;;;;23.19;41.53;100378.21;105221;1302;67869;-85
2023/06/02 00:40:07;;;;;;;13.30;8.80;;;;;;;23.20;41.45;100377.73;105329;1299;67910;-85
2023/06/02 00:42:33;;;;;;;11.20;8.50;;;;;;;23.19;41.46;100374.25;105303;1299;68082;-85
2023/06/02 00:44:58;;;;;;;13.10;7.80;;;;;;;23.19;41.49;100376.66;105320;1299;67951;-85
2023/06/02 00:47:24;;;;;;;11.70;8.70;;;;;;;23.19;41.60;100375.95;105236;1300;67757;-86
2023/06/02 00:49:49;;;;;;;12.60;8.40;;;;;;;23.18;41.62;100370.80;105285;1299;67887;-86
2023/06/02 00:52:15;;;;;;;12.40;8.50;;;;;;;23.18;41.69;100367.58;105318;1299;68131;-86
2023/06/02 00:54:41;;;;;;;12.90;8.60;;;;;;;23.18;41.62;100365.54;105310;1299;68392;-86
2023/06/02 00:57:07;;;;;;;13.10;8.50;;;;;;;23.18;41.69;100365.64;105273;1300;69318;-86
2023/06/02 00:59:33;;;;;;;14.00;8.70;;;;;;;23.17;41.65;100361.64;105254;1300;67608;-86
2023/06/02 01:04:40;;;;;;;10.40;8.00;;;;;;;23.17;41.69;100361.73;105563;1297;67746;-86
2023/06/02 01:07:06;;;;;;;11.00;8.10;;;;;;;23.17;41.78;100360.58;105445;1299;83750;-86
2023/06/02 01:09:32;;;;;;;12.00;8.90;;;;;;;23.16;41.81;100361.24;105373;1297;67436;-86
2023/06/02 01:11:57;;;;;;;11.30;8.40;;;;;;;23.16;41.78;100362.93;105563;1297;69041;-86
2023/06/02 01:14:23;;;;;;;12.70;9.20;;;;;;;23.16;41.86;100363.34;105343;1297;67816;-86
2023/06/02 01:16:49;;;;;;;14.00;8.50;;;;;;;23.16;41.90;100365.04;105605;1297;69211;-86
2023/06/02 01:19:20;;;;;;;13.00;8.20;;;;;;;23.16;41.88;100362.21;105537;1297;68135;-86
2023/06/02 01:21:57;;;;;;;11.70;8.70;;;;;;;23.16;41.96;100363.65;105427;1299;67168;-86
2023/06/02 01:24:37;;;;;;;11.20;8.20;;;;;;;23.16;41.87;100360.06;105600;1297;67893;-86
2023/06/02 01:27:10;;;;;;;12.00;8.10;;;;;;;23.15;41.96;100359.56;105457;1297;68508;-86
2023/06/02 01:29:36;;;;;;;11.30;8.20;;;;;;;23.15;41.95;100357.41;105417;1297;74428;-87
2023/06/02 01:32:06;;;;;;;10.40;8.10;;;;;;;23.15;41.95;100352.89;105451;1299;67884;-88
2023/06/02 01:34:41;;;;;;;11.20;8.20;;;;;;;23.15;42.00;100351.35;105347;1299;67828;-86
2023/06/02 01:37:07;;;;;;;10.90;8.40;;;;;;;23.15;41.98;100353.14;105374;1299;67796;-86
2023/06/02 01:39:33;;;;;;;12.10;8.10;;;;;;;23.14;42.02;100350.43;105461;1299;68615;-87
2023/06/02 01:42:00;;;;;;;10.40;7.80;;;;;;;23.14;42.06;100348.06;105446;1299;67846;-86
2023/06/02 01:44:28;;;;;;;11.50;8.40;;;;;;;23.14;42.08;100340.94;105420;1300;68492;-87
2023/06/02 01:46:57;;;;;;;11.50;8.10;;;;;;;23.14;42.16;100337.09;105410;1303;67847;-91
2023/06/02 01:49:22;;;;;;;11.50;7.90;;;;;;;23.14;42.16;100336.89;105543;1297;67439;-86
2023/06/02 01:51:48;;;;;;;17.60;8.70;;;;;;;23.14;42.08;100334.69;105488;1300;67983;-86
2023/06/02 01:54:15;;;;;;;10.90;8.20;;;;;;;23.14;42.18;100339.05;105433;1300;67788;-86
2023/06/02 01:56:40;;;;;;;12.50;8.20;;;;;;;23.14;42.18;100332.63;105471;1299;67797;-86
2023/06/02 01:59:07;;;;;;;12.10;8.40;;;;;;;23.12;42.18;100338.64;105503;1299;68950;-86
2023/06/02 02:01:33;;;;;;;12.40;8.60;;;;;;;23.13;42.16;100337.56;105436;1299;67790;-86
2023/06/02 02:04:00;;;;;;;10.50;8.30;;;;;;;23.13;42.22;100340.95;105436;1297;68024;-86
2023/06/02 02:06:29;;;;;;;12.90;8.70;;;;;;;23.13;42.25;100339.81;105422;1297;67848;-86
2023/06/02 02:08:58;;;;;;;11.60;8.30;;;;;;;23.12;42.31;100335.63;105447;1297;67832;-87
2023/06/02 02:11:26;;;;;;;10.40;7.80;;;;;;;23.11;42.27;100339.70;105394;1298;67604;-86
2023/06/02 02:13:52;;;;;;;13.20;8.80;;;;;;;23.11;42.38;100342.77;105484;1298;67752;-89
2023/06/02 02:16:17;;;;;;;11.10;8.00;;;;;;;23.12;42.39;100340.41;105451;1297;68066;-86
2023/06/02 02:18:45;;;;;;;14.40;8.60;;;;;;;23.12;42.47;100341.84;105378;1301;68221;-86
2023/06/02 02:21:12;;;;;;;12.90;8.10;;;;;;;23.11;42.40;100338.66;105419;1297;67942;-87
2023/06/02 02:23:37;;;;;;;11.60;8.10;;;;;;;23.10;42.39;100337.18;105449;1297;67142;-86
2023/06/02 02:26:03;;;;;;;11.50;8.10;;;;;;;23.11;42.44;100336.55;105440;1297;67846;-87
2023/06/02 02:28:29;;;;;;;12.90;8.70;;;;;;;23.11;42.47;100336.77;105451;1299;68545;-86
2023/06/02 02:30:55;;;;;;;11.80;8.00;;;;;;;23.10;42.49;100338.42;105454;1296;68429;-86
2023/06/02 02:33:21;;;;;;;10.90;8.20;;;;;;;23.10;42.45;100334.31;105422;1297;67775;-87
2023/06/02 02:35:46;;;;;;;12.20;8.20;;;;;;;23.10;42.52;100335.55;105425;1298;67806;-87
2023/06/02 02:38:12;;;;;;;12.60;9.00;;;;;;;23.10;42.68;100336.12;105511;1297;68102;-87
2023/06/02 02:40:46;;;;;;;13.60;8.30;;;;;;;23.10;42.71;100336.82;105577;1297;68040;-92
2023/06/02 02:43:12;;;;;;;11.30;8.00;;;;;;;23.09;42.64;100331.71;105407;1297;72457;-86
2023/06/02 02:45:38;;;;;;;12.60;8.70;;;;;;;23.09;42.66;100336.18;105449;1297;68049;-86
2023/06/02 02:48:04;;;;;;;12.90;8.70;;;;;;;23.09;42.65;100341.11;105486;1297;67577;-87
2023/06/02 02:50:30;;;;;;;11.00;8.30;;;;;;;23.08;42.69;100344.45;105663;1297;68169;-87
2023/06/02 02:52:56;;;;;;;11.00;8.20;;;;;;;23.08;42.69;100349.48;105443;1297;67857;-86
2023/06/02 02:55:21;;;;;;;11.70;8.20;;;;;;;23.08;42.69;100343.58;105438;1300;67882;-86
2023/06/02 02:57:47;;;;;;;11.90;8.20;;;;;;;23.08;42.74;100345.52;105389;1297;67265;-86
2023/06/02 03:00:13;;;;;;;13.10;8.50;;;;;;;23.08;42.79;100344.55;105443;1297;67837;-87
2023/06/02 03:02:39;;;;;;;13.40;8.10;;;;;;;23.08;42.78;100345.06;105403;1302;67798;-87
2023/06/02 03:05:06;;;;;;;11.20;8.10;;;;;;;23.08;42.77;100342.54;105408;1298;67818;-87
2023/06/02 03:07:44;;;;;;;12.70;8.80;;;;;;;23.08;42.78;100340.86;105298;1303;68521;-92
2023/06/02 03:10:10;;;;;;;12.10;8.30;;;;;;;23.07;42.85;100340.86;105403;1299;69478;-86
2023/06/02 03:12:35;;;;;;;10.20;8.10;;;;;;;23.07;42.83;100343.27;105432;1299;67829;-86
2023/06/02 03:15:01;;;;;;;12.90;8.30;;;;;;;23.07;42.93;100346.81;105461;1299;68200;-86
2023/06/02 03:17:27;;;;;;;12.40;8.20;;;;;;;23.07;42.92;100344.55;105383;1298;68153;-86
2023/06/02 03:19:55;;;;;;;14.10;8.80;;;;;;;23.07;42.88;100344.97;105562;1299;68156;-86
2023/06/02 03:22:20;;;;;;;11.80;8.30;;;;;;;23.07;42.96;100342.97;105407;1299;67828;-86
2023/06/02 03:24:46;;;;;;;9.80;8.10;;;;;;;23.07;42.96;100344.41;105466;1300;68915;-86
2023/06/02 03:27:13;;;;;;;12.10;8.10;;;;;;;23.07;43.03;100345.79;105537;1299;68067;-87
2023/06/02 03:29:42;;;;;;;11.30;7.70;;;;;;;23.07;43.11;100342.71;105603;1299;68377;-87
2023/06/02 03:32:08;;;;;;;13.80;9.10;;;;;;;23.07;43.12;100342.25;105830;1300;67751;-86
2023/06/02 03:34:34;;;;;;;11.90;8.90;;;;;;;23.06;43.06;100341.23;105833;1299;67114;-87
2023/06/02 03:37:01;;;;;;;11.80;8.20;;;;;;;23.07;43.21;100336.50;105751;1300;67938;-86
2023/06/02 03:39:26;;;;;;;12.60;8.20;;;;;;;23.07;43.17;100338.96;105781;1298;67146;-86
2023/06/02 03:41:52;;;;;;;10.10;8.30;;;;;;;23.07;43.20;100339.22;105799;1300;68299;-86
2023/06/02 03:44:17;;;;;;;12.20;8.20;;;;;;;23.06;43.16;100341.23;105722;1299;67126;-87
2023/06/02 03:46:43;;;;;;;12.50;8.70;;;;;;;23.07;43.29;100342.25;105522;1300;67849;-87
2023/06/02 03:49:09;;;;;;;10.30;8.30;;;;;;;23.06;43.23;100343.75;105383;1299;68145;-86
2023/06/02 03:51:35;;;;;;;11.50;8.30;;;;;;;23.06;43.27;100347.58;105382;1300;67925;-86
2023/06/02 03:54:01;;;;;;;11.00;8.00;;;;;;;23.06;43.23;100344.30;105419;1299;67207;-86
2023/06/02 03:56:26;;;;;;;11.80;8.30;;;;;;;23.07;43.35;100344.27;105379;1299;67926;-87
2023/06/02 03:58:52;;;;;;;12.00;8.30;;;;;;;23.06;43.35;100342.21;105428;1300;68683;-87
2023/06/02 04:03:53;;;;;;;10.90;8.60;;;;;;;23.06;43.40;100343.17;105802;1302;67140;-86
2023/06/02 04:06:18;;;;;;;10.20;8.10;;;;;;;23.06;43.36;100337.95;105574;1304;67797;-86
2023/06/02 04:08:45;;;;;;;13.00;8.80;;;;;;;23.07;43.47;100339.74;105602;1302;67174;-87
2023/06/02 04:11:11;;;;;;;10.80;8.40;;;;;;;23.07;43.44;100337.74;105226;1302;67977;-86
2023/06/02 04:13:36;;;;;;;11.20;8.10;;;;;;;23.06;43.44;100332.05;105191;1301;67861;-87
2023/06/02 04:16:02;;;;;;;10.60;8.20;;;;;;;23.06;43.39;100334.26;105378;1301;68075;-86
2023/06/02 04:18:31;;;;;;;11.30;8.30;;;;;;;23.07;43.44;100336.87;105266;1302;74703;-86
2023/06/02 04:20:57;;;;;;;12.30;8.20;;;;;;;23.06;43.46;100337.95;105298;1302;67749;-86
2023/06/02 04:23:23;;;;;;;10.90;8.50;;;;;;;23.07;43.51;100334.52;105232;1302;67866;-86
2023/06/02 04:25:49;;;;;;;10.40;8.60;;;;;;;23.07;43.52;100338.15;105178;1301;67957;-87
2023/06/02 04:28:23;;;;;;;15.40;8.50;;;;;;;23.06;43.56;100341.39;105235;1301;67790;-91
2023/06/02 04:30:52;;;;;;;16.20;9.40;;;;;;;23.07;43.60;100345.95;105194;1301;83239;-86
2023/06/02 04:33:18;;;;;;;14.00;8.30;;;;;;;23.06;43.56;100346.27;105265;1301;67763;-86
2023/06/02 04:35:47;;;;;;;12.40;8.10;;;;;;;23.06;43.63;100349.13;105200;1302;67774;-85
2023/06/02 04:38:13;;;;;;;12.10;8.50;;;;;;;23.07;43.48;100346.52;105028;1302;67776;-86
2023/06/02 04:40:39;;;;;;;10.60;8.70;;;;;;;23.07;43.55;100347.06;105084;1302;67219;-86
2023/06/02 04:43:05;;;;;;;13.50;8.60;;;;;;;23.07;43.62;100345.80;105078;1302;68445;-86
2023/06/02 04:45:47;;;;;;;11.50;8.60;;;;;;;23.06;43.63;100342.63;105364;1299;72657;-86
2023/06/02 04:48:12;;;;;;;12.20;8.80;;;;;;;23.06;43.60;100348.41;105302;1298;67671;-85
2023/06/02 04:50:38;;;;;;;12.90;9.30;;;;;;;23.06;43.65;100350.27;105375;1299;67899;-86
2023/06/02 04:53:04;;;;;;;12.10;9.00;;;;;;;23.07;43.55;100345.64;105839;1299;67070;-86
2023/06/02 04:55:30;;;;;;;12.00;8.80;;;;;;;23.07;43.72;100346.00;105703;1299;68083;-86
2023/06/02 04:57:56;;;;;;;12.90;10.00;;;;;;;23.07;43.71;100345.69;105479;1298;67848;-86
2023/06/02 05:00:22;;;;;;;27.00;14.30;;;;;;;23.07;43.74;100343.23;105318;1300;68030;-86
2023/06/02 05:02:47;;;;;;;19.50;13.40;;;;;;;23.06;43.71;100343.34;105376;1299;69352;-85
2023/06/02 05:05:13;;;;;;;21.40;13.30;;;;;;;23.05;43.76;100341.80;105422;1298;67861;-86
2023/06/02 05:07:38;;;;;;;24.10;14.50;;;;;;;23.03;43.86;100341.23;105346;1299;67206;-86
2023/06/02 05:10:21;;;;;;;19.20;13.70;;;;;;;23.01;43.94;100345.95;105511;1298;67197;-91
2023/06/02 05:12:47;;;;;;;23.00;14.10;;;;;;;22.97;44.05;100342.27;105405;1299;67865;-86
2023/06/02 05:15:13;;;;;;;23.00;14.30;;;;;;;22.94;44.10;100345.77;105307;1300;67768;-86
2023/06/02 05:17:38;;;;;;;25.60;16.40;;;;;;;22.92;44.21;100349.79;105369;1300;67841;-86
2023/06/02 05:20:05;;;;;;;26.30;15.90;;;;;;;22.90;44.32;100347.86;105489;1299;67994;-85
2023/06/02 05:22:31;;;;;;;23.60;15.90;;;;;;;22.89;44.37;100343.92;105305;1299;67979;-86
2023/06/02 05:27:40;;;;;;;27.50;16.60;;;;;;;22.86;44.57;100344.52;105483;1298;68940;-85
2023/06/02 05:30:06;;;;;;;23.60;14.60;;;;;;;22.85;44.61;100345.30;105312;1299;67997;-85
2023/06/02 05:32:32;;;;;;;25.00;16.30;;;;;;;22.85;44.59;100342.47;105411;1299;67851;-85
2023/06/02 05:34:57;;;;;;;26.40;17.30;;;;;;;22.85;44.70;100340.64;105318;1299;67689;-85
2023/06/02 05:37:23;;;;;;;28.30;17.50;;;;;;;22.84;44.65;100338.59;105377;1299;67785;-86
2023/06/02 05:39:49;;;;;;;29.30;16.10;;;;;;;22.84;44.68;100338.69;105362;1298;68461;-85
2023/06/02 05:42:14;;;;;;;26.30;17.20;;;;;;;22.85;44.73;100333.30;105340;1300;72658;-86
2023/06/02 05:44:40;;;;;;;22.10;13.20;;;;;;;22.86;44.76;100335.23;105393;1299;68528;-86
2023/06/02 05:47:05;;;;;;;32.80;17.90;;;;;;;22.87;44.76;100336.30;105335;1299;67958;-86
2023/06/02 05:49:31;;;;;;;26.30;15.40;;;;;;;22.88;44.75;100335.47;105450;1299;68169;-87
2023/06/02 05:52:06;;;;;;;33.90;16.50;;;;;;;22.89;44.78;100335.20;105400;1300;68109;-92
2023/06/02 05:54:31;;;;;;;27.10;16.10;;;;;;;22.90;44.83;100329.50;105490;1299;67793;-86
2023/06/02 05:56:57;;;;;;;27.40;16.80;;;;;;;22.90;44.84;100333.60;105438;1298;67454;-86
2023/06/02 05:59:22;;;;;;;26.80;15.80;;;;;;;22.89;44.89;100335.19;105457;1299;67212;-86
2023/06/02 06:01:48;;;;;;;23.40;14.70;;;;;;;22.89;44.87;100336.27;105360;1299;67761;-86
2023/06/02 06:04:13;;;;;;;26.90;14.90;;;;;;;22.89;45.02;100335.71;105629;1299;67084;-87
2023/06/02 06:06:39;;;;;;;24.30;15.50;;;;;;;22.89;45.06;100334.21;105331;1299;68013;-86
2023/06/02 06:09:05;;;;;;;19.90;12.10;;;;;;;22.89;44.99;100333.64;105340;1299;67177;-86
2023/06/02 06:11:31;;;;;;;20.60;11.20;;;;;;;22.90;45.14;100338.27;105404;1299;67694;-86
2023/06/02 06:13:56;;;;;;;23.70;12.50;;;;;;;22.92;45.16;100336.05;105334;1299;67162;-86
2023/06/02 06:16:22;;;;;;;16.40;11.90;;;;;;;22.93;45.13;100333.00;105410;1298;68453;-87
2023/06/02 06:19:04;;;;;;;18.10;11.30;;;;;;;22.94;45.08;100334.38;105564;1299;68355;-90
2023/06/02 06:21:30;;;;;;;16.20;11.40;;;;;;;22.95;45.06;100334.32;105753;1302;74273;-86
2023/06/02 06:23:56;;;;;;;18.00;11.80;;;;;;;22.97;44.97;100335.48;105702;1298;67870;-87
2023/06/02 06:26:21;;;;;;;65.20;15.20;;;;;;;22.98;44.92;100333.12;105685;1299;67037;-87
2023/06/02 06:28:47;;;;;;;34.30;12.40;;;;;;;22.98;44.90;100334.86;105803;1299;67419;-86
2023/06/02 06:31:12;;;;;;;26.40;12.60;;;;;;;22.98;44.81;100331.83;105771;1300;67104;-86
2023/06/02 06:33:38;;;;;;;19.20;10.50;;;;;;;22.98;44.62;100333.79;105638;1301;72579;-86
2023/06/02 06:36:04;;;;;;;19.60;11.30;;;;;;;22.99;44.79;100333.09;105263;1299;67877;-86
2023/06/02 06:38:29;;;;;;;14.90;9.40;;;;;;;23.00;44.74;100332.31;105279;1300;67798;-86
2023/06/02 06:40:55;;;;;;;28.50;10.00;;;;;;;23.02;44.70;100333.17;105353;1302;68081;-86
2023/06/02 06:43:23;;;;;;;17.30;10.00;;;;;;;23.03;44.69;100329.41;105459;1299;67851;-86
2023/06/02 06:45:59;;;;;;;16.20;10.20;;;;;;;23.05;44.74;100322.02;105311;1302;67124;-91
2023/06/02 06:48:25;;;;;;;16.10;9.30;;;;;;;23.06;44.71;100320.87;105356;1298;67836;-86
2023/06/02 06:50:50;;;;;;;21.30;10.30;;;;;;;23.08;44.61;100324.79;105328;1300;69180;-86
2023/06/02 06:53:17;;;;;;;17.60;10.20;;;;;;;23.09;44.49;100324.48;105305;1299;67791;-86
2023/06/02 06:55:43;;;;;;;22.50;10.60;;;;;;;23.11;44.37;100326.09;105452;1299;68037;-86
2023/06/02 06:58:08;;;;;;;17.30;10.30;;;;;;;23.13;44.41;100324.89;105331;1299;67685;-86
2023/06/02 07:00:34;;;;;;;19.90;10.90;;;;;;;23.14;44.25;100329.13;105408;1299;67977;-86
2023/06/02 07:02:59;;;;;;;19.10;10.10;;;;;;;23.16;44.19;100329.17;105367;1299;67834;-86
2023/06/02 07:05:25;;;;;;;15.90;10.10;;;;;;;23.17;44.15;100327.20;105440;1299;68596;-87
2023/06/02 07:07:51;;;;;;;23.20;10.00;;;;;;;23.19;43.94;100325.34;105414;1299;67996;-87
2023/06/02 07:10:17;;;;;;;17.60;10.20;;;;;;;23.21;43.90;100322.91;105081;1299;321912;-87
2023/06/02 07:12:51;;;;;;;16.80;10.30;;;;;;;23.23;43.85;100319.06;105289;1304;67955;-91
2023/06/02 07:15:17;;;;;;;22.30;9.60;;;;;;;23.25;43.73;100316.11;105411;1299;74431;-87
2023/06/02 07:17:43;;;;;;;11.90;9.30;;;;;;;23.27;43.68;100312.64;105358;1300;67879;-86
2023/06/02 07:20:09;;;;;;;13.50;7.80;;;;;;;23.29;43.71;100311.23;105270;1298;67788;-86
2023/06/02 07:22:35;;;;;;;15.20;8.60;;;;;;;23.31;43.53;100313.26;105302;1299;67708;-86
2023/06/02 07:25:03;;;;;;;20.40;9.30;;;;;;;23.34;43.45;100316.37;105483;1299;67765;-88
2023/06/02 07:27:29;;;;;;;14.50;9.40;;;;;;;23.35;43.24;100318.81;105301;1299;68278;-87
2023/06/02 07:30:04;;;;;;;16.20;9.90;;;;;;;23.37;43.06;100322.39;105467;1297;68053;-87
2023/06/02 07:32:30;;;;;;;12.90;9.40;;;;;;;23.39;43.16;100324.60;105464;1297;67887;-86
2023/06/02 07:34:55;;;;;;;18.80;10.00;;;;;;;23.42;43.16;100323.95;105560;1297;67934;-86
2023/06/02 07:37:21;;;;;;;18.70;9.50;;;;;;;23.45;43.06;100321.88;105565;1298;67673;-87
2023/06/02 07:39:46;;;;;;;19.90;9.70;;;;;;;23.47;43.11;100330.31;105427;1299;67902;-88
2023/06/02 07:42:12;;;;;;;19.50;9.70;;;;;;;23.49;43.06;100332.05;105385;1301;67901;-87
2023/06/02 07:44:38;;;;;;;17.80;9.20;;;;;;;23.50;42.84;100330.94;105484;1300;68047;-87
2023/06/02 07:47:04;;;;;;;14.40;9.20;;;;;;;23.51;42.60;100332.89;105367;1299;67458;-87
2023/06/02 07:49:29;;;;;;;16.70;8.90;;;;;;;23.52;42.49;100335.59;105475;1299;67863;-88
2023/06/02 07:51:55;;;;;;;16.70;8.70;;;;;;;23.54;42.46;100331.26;105520;1299;67788;-88
2023/06/02 07:54:21;;;;;;;12.50;8.10;;;;;;;23.55;42.42;100333.61;105352;1300;68487;-88
2023/06/02 07:56:47;;;;;;;16.90;8.40;;;;;;;23.58;42.34;100332.76;105631;1299;68351;-87
2023/06/02 07:59:13;;;;;;;21.10;9.00;;;;;;;23.60;42.36;100333.13;105500;1299;74458;-88
2023/06/02 08:01:39;;;;;;;15.90;8.70;;;;;;;23.64;42.24;100334.83;105431;1299;68440;-88
2023/06/02 08:04:04;;;;;;;19.80;15.30;;;;;;;23.67;42.37;100331.65;105361;1300;68025;-88
2023/06/02 08:06:39;;;;;;;18.10;11.10;;;;;;;23.69;42.35;100334.04;105271;1300;68515;-92
2023/06/02 08:09:05;;;;;;;21.10;10.40;;;;;;;23.71;42.17;100332.82;105486;1299;67846;-87
2023/06/02 08:11:30;;;;;;;14.40;8.50;;;;;;;23.72;42.18;100331.00;105448;1299;68137;-86
2023/06/02 08:13:56;;;;;;;16.60;8.20;;;;;;;23.74;42.08;100329.65;105432;1298;67104;-86
2023/06/02 08:16:23;;;;;;;22.30;8.40;;;;;;;23.77;42.01;100330.33;105475;1299;68120;-86
2023/06/02 08:18:48;;;;;;;15.80;7.60;;;;;;;23.78;41.98;100329.61;105307;1298;68298;-86
2023/06/02 08:21:14;;;;;;;15.50;8.30;;;;;;;23.78;41.72;100328.05;105331;1299;68551;-86
2023/06/02 08:23:40;;;;;;;15.30;7.70;;;;;;;23.78;41.72;100326.11;105371;1301;67779;-87
2023/06/02 08:26:06;;;;;;;12.80;7.30;;;;;;;23.78;41.65;100330.10;105475;1298;67901;-87
2023/06/02 08:28:33;;;;;;;11.40;7.30;;;;;;;23.78;41.46;100327.45;105478;1300;67852;-87
2023/06/02 08:31:00;;;;;;;10.90;6.40;;;;;;;23.79;41.43;100325.94;105534;1299;67826;-87
2023/06/02 08:33:35;;;;;;;10.50;7.00;;;;;;;23.80;41.35;100318.73;105473;1298;67758;-92
2023/06/02 08:36:01;;;;;;;13.70;7.60;;;;;;;23.82;41.00;100312.85;105561;1299;67890;-86
2023/06/02 08:38:29;;;;;;;10.00;6.70;;;;;;;23.83;41.20;100312.27;105326;1300;67780;-87
2023/06/02 08:40:57;;;;;;;10.50;6.90;;;;;;;23.85;41.09;100310.04;105425;1298;68099;-87
2023/06/02 08:43:23;;;;;;;14.40;7.30;;;;;;;23.86;40.80;100311.75;105552;1300;67785;-87
2023/06/02 08:45:49;;;;;;;14.80;7.00;;;;;;;23.87;40.93;100312.30;105489;1300;67826;-88
2023/06/02 08:51:00;;;;;;;13.40;7.10;;;;;;;23.88;40.98;100317.33;105772;1296;68466;-87
2023/06/02 08:53:26;;;;;;;14.70;7.40;;;;;;;23.89;40.82;100313.30;105585;1296;67944;-87
2023/06/02 08:55:52;;;;;;;16.00;7.20;;;;;;;23.89;40.81;100311.66;105637;1296;68326;-87
2023/06/02 08:58:17;;;;;;;15.20;6.80;;;;;;;23.90;40.90;100312.73;105622;1299;68839;-87
2023/06/02 09:00:43;;;;;;;11.50;6.30;;;;;;;23.91;40.69;100308.55;105569;1296;67264;-87
2023/06/02 09:05:55;;;;;;;7.50;5.50;;;;;;;23.91;40.48;100309.78;105556;1299;68942;-86
2023/06/02 09:08:22;;;;;;;7.80;6.10;;;;;;;23.93;40.30;100304.27;105480;1299;67466;-87
2023/06/02 09:10:48;;;;;;;11.60;6.20;;;;;;;23.93;40.02;100297.84;105495;1302;67940;-87
2023/06/02 09:13:32;;;;;;;13.20;6.60;;;;;;;23.94;40.10;100296.29;105547;1299;68707;-87
2023/06/02 09:16:01;;;;;;;8.40;5.60;;;;;;;23.93;40.01;100297.17;105454;1299;68487;-86
2023/06/02 09:18:27;;;;;;;9.50;6.10;;;;;;;23.93;39.78;100294.23;105505;1300;68369;-87
2023/06/02 09:20:53;;;;;;;9.90;6.10;;;;;;;23.94;39.72;100290.57;105533;1299;67267;-86
2023/06/02 09:23:19;;;;;;;8.10;5.60;;;;;;;23.94;39.80;100286.93;105599;1299;67886;-86
2023/06/02 09:25:45;;;;;;;15.00;5.90;;;;;;;23.96;39.45;100282.84;105444;1299;68149;-87
2023/06/02 09:28:11;;;;;;;8.30;5.50;;;;;;;23.97;39.27;100281.29;105490;1299;68074;-87
2023/06/02 09:30:37;;;;;;;9.10;5.50;;;;;;;23.98;39.19;100283.39;105533;1299;67526;-87
2023/06/02 09:35:37;;;;;;;11.10;5.90;;;;;;;24.01;38.97;100271.33;105694;1297;69126;-86
2023/06/02 09:38:05;;;;;;;11.90;6.20;;;;;;;24.03;38.76;100269.40;105759;1297;67272;-87
2023/06/02 09:40:34;;;;;;;19.10;6.70;;;;;;;24.05;38.73;100271.53;105616;1301;67150;-87
2023/06/02 09:43:11;;;;;;;16.70;6.50;;;;;;;24.06;39.00;100269.98;105542;1297;67721;-87
2023/06/02 09:45:49;;;;;;;13.10;6.80;;;;;;;24.08;39.04;100265.92;105581;1298;75351;-88
2023/06/02 09:48:18;;;;;;;7.90;5.80;;;;;;;24.09;38.93;100267.45;105705;1297;68443;-88
2023/06/02 09:50:44;;;;;;;11.60;5.70;;;;;;;24.09;39.01;100268.17;105494;1297;67642;-87
2023/06/02 09:53:13;;;;;;;8.90;5.30;;;;;;;24.12;38.73;100267.40;105598;1298;67344;-87
2023/06/02 09:55:39;;;;;;;9.80;4.90;;;;;;;24.14;38.51;100257.48;105575;1297;67698;-87
2023/06/02 09:58:05;;;;;;;8.40;4.80;;;;;;;24.16;38.20;100251.86;105476;1299;67994;-88
2023/06/02 10:00:32;;;;;;;11.80;4.80;;;;;;;24.16;38.04;100246.77;105377;1297;68462;-87
2023/06/02 10:05:39;;;;;;;5.80;5.20;;;;;;;24.19;37.86;100240.71;105679;1296;68882;-87
2023/06/02 10:08:23;;;;;;;13.00;5.10;;;;;;;24.21;38.03;100239.18;105612;1297;67718;-87
2023/06/02 10:10:58;;;;;;;6.20;5.10;;;;;;;24.21;37.98;100240.10;105652;1297;74410;-87
2023/06/02 10:13:33;;;;;;;8.80;5.40;;;;;;;24.22;38.06;100233.56;105829;1297;67992;-87
2023/06/02 10:16:08;;;;;;;5.90;5.10;;;;;;;24.23;38.00;100233.96;105897;1297;67410;-88
2023/06/02 10:18:36;;;;;;;6.40;5.00;;;;;;;24.25;37.94;100225.44;106082;1297;66970;-88
2023/06/02 10:21:42;;;;;;;10.40;6.10;;;;;;;24.28;37.76;100224.61;105731;1297;68348;-93
2023/06/02 10:24:16;;;;;;;12.50;5.60;;;;;;;24.30;37.88;100226.68;105790;1296;74170;-89
2023/06/02 10:27:16;;;;;;;8.50;5.40;;;;;;;24.33;37.74;100223.84;105905;1297;67783;-88
2023/06/02 10:29:43;;;;;;;12.40;5.60;;;;;;;24.34;37.73;100217.71;106002;1297;67027;-87
2023/06/02 10:32:23;;;;;;;8.90;5.40;;;;;;;24.34;37.46;100210.93;105986;1297;67133;-87
2023/06/02 10:34:50;;;;;;;9.40;5.20;;;;;;;24.34;37.35;100209.91;105920;1297;67063;-87
2023/06/02 10:37:16;;;;;;;7.70;4.90;;;;;;;24.34;37.01;100210.32;105840;1297;74299;-87
2023/06/02 10:39:41;;;;;;;8.30;5.10;;;;;;;24.34;37.06;100207.69;105849;1297;67134;-88
2023/06/02 10:42:08;;;;;;;6.60;5.10;;;;;;;24.34;37.05;100202.60;105605;1297;67811;-87
2023/06/02 10:44:34;;;;;;;6.70;5.50;;;;;;;24.34;36.97;100198.14;105469;1297;67868;-86
2023/06/02 10:47:18;;;;;;;10.30;5.70;;;;;;;24.33;37.05;100195.98;105492;1297;67833;-87
2023/06/02 10:50:00;;;;;;;7.80;5.20;;;;;;;24.34;36.91;100199.30;105533;1298;74540;-87
2023/06/02 10:52:26;;;;;;;11.70;4.60;;;;;;;24.36;36.68;100192.44;105683;1301;67757;-87
2023/06/02 10:55:07;;;;;;;14.20;5.20;;;;;;;24.39;36.60;100191.63;105842;1299;68508;-87
2023/06/02 10:57:49;;;;;;;11.10;5.50;;;;;;;24.40;36.85;100189.64;105880;1298;67038;-87
2023/06/02 11:00:31;;;;;;;14.10;8.70;;;;;;;24.41;36.91;100185.09;105882;1297;67167;-87
2023/06/02 11:02:59;;;;;;;16.00;6.70;;;;;;;24.41;36.89;100180.95;105946;1299;74575;-92
2023/06/02 11:05:25;;;;;;;10.90;5.90;;;;;;;24.41;37.01;100179.90;105744;1302;67648;-87
2023/06/02 11:08:18;;;;;;;12.10;5.40;;;;;;;24.43;36.98;100179.62;105773;1299;67743;-87
2023/06/02 11:10:57;;;;;;;10.10;4.60;;;;;;;24.44;37.03;100179.17;105639;1300;67713;-87
2023/06/02 11:13:25;;;;;;;52.90;41.10;;;;;;;24.45;36.96;100177.04;105520;1298;67076;-86
2023/06/02 11:15:54;;;;;;;29.20;22.00;;;;;;;24.48;36.83;100175.30;105340;1298;74483;-87
2023/06/02 11:18:23;;;;;;;21.70;18.20;;;;;;;24.50;36.56;100169.91;105735;1299;67927;-88
2023/06/02 11:20:59;;;;;;;23.30;11.80;;;;;;;24.52;36.45;100173.72;105787;1299;67310;-92
2023/06/02 11:23:25;;;;;;;12.90;8.40;;;;;;;24.54;36.61;100168.54;105789;1300;67168;-87
2023/06/02 11:26:13;;;;;;;18.30;7.00;;;;;;;24.56;36.59;100167.02;105831;1299;67383;-88
2023/06/02 11:28:39;;;;;;;9.80;5.40;;;;;;;24.57;36.67;100166.42;106063;1299;74125;-87
2023/06/02 11:31:05;;;;;;;6.80;5.30;;;;;;;24.60;36.65;100167.90;105922;1299;67137;-87